createdAt,value
2023-04-19T00:00:57.827Z,14.77
2023-04-19T00:03:26.392Z,14.77
2023-04-19T00:05:59.574Z,14.75
2023-04-19T00:08:29.018Z,14.76
2023-04-19T00:10:56.944Z,14.75
2023-04-19T00:13:25.693Z,14.74
2023-04-19T00:15:53.726Z,14.72
2023-04-19T00:18:21.599Z,14.71
2023-04-19T00:20:50.493Z,14.71
2023-04-19T00:23:18.468Z,14.68
2023-04-19T00:25:51.662Z,14.71
2023-04-19T00:28:19.946Z,14.66
2023-04-19T00:30:47.979Z,14.63
2023-04-19T00:33:16.705Z,14.62
2023-04-19T00:35:44.703Z,14.62
2023-04-19T00:38:12.683Z,14.60
2023-04-19T00:40:41.391Z,14.60
2023-04-19T00:43:10.844Z,14.60
2023-04-19T00:45:38.924Z,14.60
2023-04-19T00:48:08.549Z,14.58
2023-04-19T00:50:36.724Z,14.63
2023-04-19T00:53:04.806Z,14.62
2023-04-19T00:55:34.003Z,14.61
2023-04-19T00:58:02.153Z,14.57
2023-04-19T01:00:31.738Z,14.54
2023-04-19T01:03:00.289Z,14.52
2023-04-19T01:05:28.620Z,14.48
2023-04-19T01:07:56.619Z,14.46
2023-04-19T01:10:25.221Z,14.44
2023-04-19T01:12:53.159Z,14.42
2023-04-19T01:15:21.428Z,14.39
2023-04-19T01:17:51.597Z,14.38
2023-04-19T01:20:19.796Z,14.38
2023-04-19T01:22:49.201Z,14.36
2023-04-19T01:25:17.762Z,14.35
2023-04-19T01:27:45.685Z,14.34
2023-04-19T01:30:14.322Z,14.34
2023-04-19T01:32:42.946Z,14.33
2023-04-19T01:35:11.423Z,14.32
2023-04-19T01:37:39.396Z,14.32
2023-04-19T01:40:10.261Z,14.25
2023-04-19T01:42:38.027Z,14.23
2023-04-19T01:45:06.883Z,14.22
2023-04-19T01:47:35.268Z,14.19
2023-04-19T01:50:03.036Z,14.15
2023-04-19T01:52:30.858Z,14.14
2023-04-19T01:54:59.019Z,14.13
2023-04-19T01:57:28.171Z,14.12
2023-04-19T01:59:55.944Z,14.09
2023-04-19T02:02:24.251Z,14.08
2023-04-19T02:04:52.031Z,14.09
2023-04-19T02:07:19.691Z,14.02
2023-04-19T02:09:47.981Z,14.04
2023-04-19T02:12:15.704Z,14.04
2023-04-19T02:14:44.746Z,14.06
2023-04-19T02:17:13.025Z,14.05
2023-04-19T02:19:40.940Z,14.05
2023-04-19T02:22:08.585Z,14.08
2023-04-19T02:24:36.789Z,14.09
2023-04-19T02:27:04.562Z,14.09
2023-04-19T02:29:32.590Z,14.11
2023-04-19T02:32:04.497Z,14.10
2023-04-19T02:34:32.415Z,14.13
2023-04-19T02:37:00.500Z,14.14
2023-04-19T02:39:29.125Z,14.14
2023-04-19T02:41:56.826Z,14.11
2023-04-19T02:44:24.525Z,14.15
2023-04-19T02:46:53.528Z,14.16
2023-04-19T02:49:22.832Z,14.18
2023-04-19T02:51:52.170Z,14.19
2023-04-19T02:54:20.506Z,14.17
2023-04-19T02:56:48.163Z,14.18
2023-04-19T02:59:15.856Z,14.15
2023-04-19T03:01:44.183Z,14.18
2023-04-19T03:04:12.623Z,14.16
2023-04-19T03:06:42.103Z,14.19
2023-04-19T03:09:10.303Z,14.19
2023-04-19T03:11:38.672Z,14.23
2023-04-19T03:14:06.508Z,14.22
2023-04-19T03:16:34.952Z,14.23
2023-04-19T03:19:02.624Z,14.24
2023-04-19T03:21:30.273Z,14.26
2023-04-19T03:23:59.911Z,14.22
2023-04-19T03:26:27.435Z,14.15
2023-04-19T03:28:55.146Z,14.17
2023-04-19T03:31:23.515Z,14.16
2023-04-19T03:33:51.680Z,14.12
2023-04-19T03:36:19.385Z,14.08
2023-04-19T03:38:47.673Z,14.09
2023-04-19T03:41:24.469Z,14.09
2023-04-19T03:43:52.757Z,14.06
2023-04-19T03:46:20.748Z,14.01
2023-04-19T03:48:49.062Z,13.93
2023-04-19T03:51:17.083Z,14.03
2023-04-19T03:53:44.819Z,14.09
2023-04-19T03:56:12.489Z,14.12
2023-04-19T03:58:42.870Z,14.08
2023-04-19T04:01:18.956Z,14.19
2023-04-19T04:03:47.536Z,14.25
2023-04-19T04:06:15.426Z,14.28
2023-04-19T04:08:43.078Z,14.31
2023-04-19T04:11:11.309Z,14.33
2023-04-19T04:13:38.970Z,14.34
2023-04-19T04:16:08.240Z,14.31
2023-04-19T04:18:36.421Z,14.23
2023-04-19T04:21:04.684Z,14.20
2023-04-19T04:23:33.806Z,14.17
2023-04-19T04:26:02.982Z,14.10
2023-04-19T04:28:31.356Z,14.07
2023-04-19T04:31:00.264Z,13.91
2023-04-19T04:33:30.400Z,13.88
2023-04-19T04:35:59.092Z,13.68
2023-04-19T04:38:27.282Z,13.73
2023-04-19T04:40:57.569Z,13.72
2023-04-19T04:43:29.064Z,13.71
2023-04-19T04:45:58.484Z,13.69
2023-04-19T04:48:26.274Z,13.66
2023-04-19T04:50:55.500Z,13.68
2023-04-19T04:53:23.756Z,13.62
2023-04-19T04:55:51.584Z,13.68
2023-04-19T04:58:20.446Z,13.65
2023-04-19T05:00:49.107Z,13.57
2023-04-19T05:03:17.045Z,13.54
2023-04-19T05:05:45.323Z,13.60
2023-04-19T05:08:15.106Z,13.66
2023-04-19T05:10:42.631Z,13.63
2023-04-19T05:13:10.472Z,13.59
2023-04-19T05:15:38.616Z,13.63
2023-04-19T05:18:06.863Z,13.65
2023-04-19T05:20:34.903Z,13.70
2023-04-19T05:23:04.057Z,13.67
2023-04-19T05:25:33.128Z,13.72
2023-04-19T05:28:00.860Z,13.68
2023-04-19T05:30:29.011Z,13.72
2023-04-19T05:32:57.967Z,13.72
2023-04-19T05:35:25.712Z,13.71
2023-04-19T05:37:53.803Z,13.80
2023-04-19T05:40:23.604Z,13.86
2023-04-19T05:42:52.934Z,13.74
2023-04-19T05:45:21.189Z,13.73
2023-04-19T05:47:48.997Z,13.73
2023-04-19T05:50:18.051Z,13.83
2023-04-19T05:52:46.244Z,13.89
2023-04-19T05:55:14.088Z,13.83
2023-04-19T05:57:41.852Z,13.89
2023-04-19T06:00:13.278Z,14.02
2023-04-19T06:02:41.215Z,14.13
2023-04-19T06:05:10.741Z,14.22
2023-04-19T06:07:43.171Z,14.28
2023-04-19T06:10:11.902Z,14.34
2023-04-19T06:12:39.620Z,14.36
2023-04-19T06:15:08.946Z,14.39
2023-04-19T06:17:38.041Z,14.48
2023-04-19T06:20:08.403Z,14.53
2023-04-19T06:22:36.374Z,14.56
2023-04-19T06:25:04.319Z,14.58
2023-04-19T06:27:32.509Z,14.58
2023-04-19T06:30:00.997Z,14.61
2023-04-19T06:32:28.735Z,14.61
2023-04-19T06:34:59.740Z,14.65
2023-04-19T06:37:27.413Z,14.64
2023-04-19T06:39:55.493Z,14.68
2023-04-19T06:42:25.843Z,14.70
2023-04-19T06:44:53.579Z,14.74
2023-04-19T06:47:21.274Z,14.77
2023-04-19T06:49:49.469Z,14.71
2023-04-19T06:52:18.594Z,14.72
2023-04-19T06:54:49.355Z,14.83
2023-04-19T06:57:17.189Z,14.90
2023-04-19T06:59:45.001Z,14.96
2023-04-19T07:02:13.323Z,14.83
2023-04-19T07:04:41.213Z,14.97
2023-04-19T07:07:09.049Z,15.02
2023-04-19T07:09:38.526Z,15.15
2023-04-19T07:12:07.222Z,15.24
2023-04-19T07:14:34.954Z,15.33
2023-04-19T07:17:03.259Z,15.42
2023-04-19T07:19:30.920Z,15.50
2023-04-19T07:21:58.598Z,15.61
2023-04-19T07:24:28.431Z,15.72
2023-04-19T07:26:57.508Z,15.82
2023-04-19T07:29:25.224Z,15.91
2023-04-19T07:31:55.843Z,15.99
2023-04-19T07:34:23.830Z,16.08
2023-04-19T07:36:51.520Z,16.16
2023-04-19T07:39:19.628Z,16.25
2023-04-19T07:41:47.408Z,16.30
2023-04-19T07:44:16.641Z,16.35
2023-04-19T07:46:45.617Z,16.38
2023-04-19T07:49:13.367Z,16.48
2023-04-19T07:51:41.357Z,16.56
2023-04-19T07:54:11.288Z,16.65
2023-04-19T07:56:39.188Z,16.76
2023-04-19T07:59:09.087Z,16.90
2023-04-19T08:01:39.277Z,17.00
2023-04-19T08:04:08.065Z,17.06
2023-04-19T08:06:37.916Z,17.13
2023-04-19T08:09:06.000Z,17.27
2023-04-19T08:11:33.692Z,17.29
2023-04-19T08:17:14.603Z,17.34
2023-04-19T08:19:22.475Z,17.39
2023-04-19T08:21:50.666Z,17.45
2023-04-19T08:24:18.513Z,17.42
2023-04-19T08:26:53.928Z,17.53
2023-04-19T08:29:22.118Z,17.63
2023-04-19T08:31:49.969Z,17.66
2023-04-19T08:34:18.193Z,17.73
2023-04-19T08:37:00.121Z,17.72
2023-04-19T08:39:33.875Z,17.80
2023-04-19T08:42:10.416Z,17.87
2023-04-19T08:45:13.204Z,17.94
2023-04-19T08:47:42.199Z,17.64
2023-04-19T08:50:31.203Z,17.88
2023-04-19T08:53:16.469Z,18.02
2023-04-19T08:58:32.966Z,18.11
2023-04-19T09:01:17.097Z,18.29
2023-04-19T09:03:59.419Z,18.42
2023-04-19T09:06:37.913Z,18.50
2023-04-19T09:09:33.418Z,18.61
2023-04-19T09:12:05.761Z,18.70
2023-04-19T09:14:33.454Z,18.78
2023-04-19T09:17:18.087Z,18.88
2023-04-19T09:19:49.706Z,18.92
2023-04-19T09:22:17.998Z,18.96
2023-04-19T09:27:27.016Z,18.79
2023-04-19T09:29:55.606Z,18.88
2023-04-19T09:32:23.461Z,18.89
2023-04-19T09:34:56.511Z,18.68
2023-04-19T09:37:39.089Z,18.79
2023-04-19T09:40:28.073Z,18.70
2023-04-19T09:45:30.538Z,18.61
2023-04-19T09:48:03.593Z,18.67
2023-04-19T09:50:32.269Z,18.67
2023-04-19T09:53:01.952Z,18.74
2023-04-19T09:55:41.298Z,18.82
2023-04-19T09:58:17.254Z,18.82
2023-04-19T10:00:50.212Z,18.79
2023-04-19T10:03:21.969Z,18.75
2023-04-19T10:05:51.173Z,18.68
2023-04-19T10:08:20.015Z,18.74
2023-04-19T10:10:55.032Z,18.86
2023-04-19T10:13:26.643Z,18.76
2023-04-19T10:15:59.318Z,18.73
2023-04-19T10:18:36.662Z,18.80
2023-04-19T10:21:09.394Z,18.92
2023-04-19T10:23:38.530Z,19.03
2023-04-19T10:26:07.902Z,18.92
2023-04-19T10:28:38.258Z,18.87
2023-04-19T10:31:06.762Z,19.08
2023-04-19T10:33:38.500Z,19.13
2023-04-19T10:36:10.455Z,19.24
2023-04-19T10:38:40.786Z,19.36
2023-04-19T10:41:16.789Z,19.48
2023-04-19T10:43:48.050Z,19.26
2023-04-19T10:46:18.470Z,19.56
2023-04-19T10:48:55.047Z,19.72
2023-04-19T10:51:25.106Z,19.71
2023-04-19T10:53:55.651Z,19.69
2023-04-19T10:57:02.158Z,19.86
2023-04-19T10:59:34.484Z,19.90
2023-04-19T11:02:03.756Z,19.61
2023-04-19T11:05:02.096Z,19.79
2023-04-19T11:07:29.898Z,19.59
2023-04-19T11:09:57.581Z,19.73
2023-04-19T11:12:27.309Z,19.44
2023-04-19T11:14:57.414Z,19.19
2023-04-19T11:17:28.258Z,19.38
2023-04-19T11:19:57.816Z,19.34
2023-04-19T11:22:33.679Z,19.06
2023-04-19T11:25:08.785Z,19.08
2023-04-19T11:27:38.952Z,19.17
2023-04-19T11:30:08.485Z,19.08
2023-04-19T11:32:36.311Z,19.19
2023-04-19T11:35:10.120Z,19.04
2023-04-19T11:37:39.547Z,19.08
2023-04-19T11:40:08.829Z,18.91
2023-04-19T11:42:38.456Z,19.05
2023-04-19T11:45:13.101Z,19.26
2023-04-19T11:47:50.750Z,19.23
2023-04-19T11:50:38.711Z,19.33
2023-04-19T11:53:17.472Z,19.35
2023-04-19T11:55:51.061Z,19.40
2023-04-19T11:58:29.681Z,19.40
2023-04-19T12:00:58.420Z,19.47
2023-04-19T12:03:26.991Z,19.42
2023-04-19T12:05:56.963Z,19.55
2023-04-19T12:08:32.432Z,19.65
2023-04-19T12:11:01.307Z,19.53
2023-04-19T12:13:31.487Z,19.66
2023-04-19T12:15:59.808Z,19.47
2023-04-19T12:18:28.348Z,19.72
2023-04-19T12:20:56.397Z,19.87
2023-04-19T12:23:24.339Z,19.95
2023-04-19T12:25:52.458Z,19.92
2023-04-19T12:28:20.473Z,20.02
2023-04-19T12:30:50.093Z,20.16
2023-04-19T12:33:18.127Z,19.96
2023-04-19T12:35:46.056Z,20.08
2023-04-19T12:38:14.023Z,20.04
2023-04-19T12:40:42.183Z,20.16
2023-04-19T12:43:10.107Z,20.09
2023-04-19T12:45:38.049Z,20.03
2023-04-19T12:48:08.131Z,19.96
2023-04-19T12:50:36.206Z,20.02
2023-04-19T12:53:04.037Z,20.13
2023-04-19T12:55:32.422Z,20.23
2023-04-19T12:58:00.387Z,20.34
2023-04-19T13:00:30.155Z,19.94
2023-04-19T13:02:58.718Z,20.03
2023-04-19T13:05:28.148Z,20.15
2023-04-19T13:07:56.555Z,20.07
2023-04-19T13:10:24.775Z,20.05
2023-04-19T13:12:52.760Z,20.21
2023-04-19T13:15:20.735Z,20.30
2023-04-19T13:17:48.813Z,20.39
2023-04-19T13:20:16.881Z,20.43
2023-04-19T13:22:45.979Z,20.11
2023-04-19T13:25:14.051Z,20.10
2023-04-19T13:27:41.721Z,19.94
2023-04-19T13:30:10.525Z,19.58
2023-04-19T13:32:38.441Z,19.47
2023-04-19T13:35:07.213Z,19.62
2023-04-19T13:37:34.925Z,19.76
2023-04-19T13:40:18.138Z,19.70
2023-04-19T13:42:47.249Z,19.58
2023-04-19T13:45:15.661Z,19.50
2023-04-19T13:47:43.411Z,19.37
2023-04-19T13:50:12.827Z,19.50
2023-04-19T13:52:41.039Z,19.63
2023-04-19T13:55:10.756Z,19.74
2023-04-19T13:57:38.696Z,19.51
2023-04-19T14:00:08.396Z,19.50
2023-04-19T14:02:36.872Z,19.41
2023-04-19T14:05:05.256Z,19.27
2023-04-19T14:07:34.423Z,19.30
2023-04-19T14:10:02.252Z,18.95
2023-04-19T14:12:31.300Z,18.83
2023-04-19T14:14:59.575Z,18.97
2023-04-19T14:17:27.385Z,19.03
2023-04-19T14:19:55.097Z,19.08
2023-04-19T14:22:22.782Z,19.09
2023-04-19T14:24:50.688Z,19.24
2023-04-19T14:27:19.175Z,19.44
2023-04-19T14:29:48.286Z,19.35
2023-04-19T14:32:26.028Z,19.15
2023-04-19T14:34:55.640Z,19.18
2023-04-19T14:37:24.254Z,18.91
2023-04-19T14:39:52.578Z,19.02
2023-04-19T14:42:22.854Z,19.03
2023-04-19T14:44:53.249Z,18.83
2023-04-19T14:47:22.363Z,19.09
2023-04-19T14:49:50.537Z,18.71
2023-04-19T14:52:18.388Z,18.75
2023-04-19T14:54:46.607Z,18.98
2023-04-19T14:57:14.586Z,19.14
2023-04-19T14:59:42.269Z,19.03
2023-04-19T15:02:13.873Z,19.08
2023-04-19T15:04:42.313Z,19.06
2023-04-19T15:07:11.409Z,19.27
2023-04-19T15:09:40.349Z,19.23
2023-04-19T15:12:08.471Z,19.32
2023-04-19T15:14:36.437Z,19.48
2023-04-19T15:17:04.978Z,19.33
2023-04-19T15:19:34.110Z,19.01
2023-04-19T15:22:03.871Z,18.98
2023-04-19T15:24:32.326Z,18.83
2023-04-19T15:27:00.209Z,18.70
2023-04-19T15:29:28.022Z,18.66
2023-04-19T15:31:55.985Z,18.85
2023-04-19T15:34:25.295Z,18.93
2023-04-19T15:36:54.474Z,18.93
2023-04-19T15:39:22.780Z,18.79
2023-04-19T15:41:50.541Z,18.89
2023-04-19T15:44:18.402Z,18.98
2023-04-19T15:46:46.683Z,19.03
2023-04-19T15:49:14.699Z,18.77
2023-04-19T15:51:42.693Z,18.73
2023-04-19T15:54:12.258Z,18.89
2023-04-19T15:56:39.766Z,18.70
2023-04-19T15:59:07.502Z,18.43
2023-04-19T16:01:36.973Z,18.49
2023-04-19T16:04:04.999Z,18.52
2023-04-19T16:06:32.886Z,18.31
2023-04-19T16:09:00.802Z,18.58
2023-04-19T16:11:30.544Z,18.63
2023-04-19T16:13:58.218Z,18.71
2023-04-19T16:16:26.817Z,18.64
2023-04-19T16:18:54.546Z,18.77
2023-04-19T16:21:22.220Z,18.62
2023-04-19T16:23:50.103Z,18.79
2023-04-19T16:26:17.826Z,18.89
2023-04-19T16:28:46.854Z,18.98
2023-04-19T16:31:14.808Z,19.00
2023-04-19T16:33:42.493Z,19.08
2023-04-19T16:36:10.271Z,19.03
2023-04-19T16:38:38.149Z,18.85
2023-04-19T16:41:06.022Z,18.80
2023-04-19T16:43:33.823Z,18.38
2023-04-19T16:46:03.166Z,18.22
2023-04-19T16:48:30.811Z,18.23
2023-04-19T16:50:58.477Z,18.24
2023-04-19T16:53:26.393Z,18.34
2023-04-19T16:55:55.809Z,18.09
2023-04-19T16:58:24.619Z,18.11
2023-04-19T17:00:52.495Z,18.16
2023-04-19T17:03:21.915Z,18.20
2023-04-19T17:05:49.595Z,18.02
2023-04-19T17:08:17.459Z,17.95
2023-04-19T17:10:45.103Z,17.96
2023-04-19T17:13:12.767Z,17.99
2023-04-19T17:15:40.939Z,18.11
2023-04-19T17:18:08.805Z,17.92
2023-04-19T17:20:37.898Z,17.66
2023-04-19T17:23:05.872Z,17.91
2023-04-19T17:25:33.579Z,18.02
2023-04-19T17:28:01.415Z,18.14
2023-04-19T17:30:29.459Z,18.19
2023-04-19T17:32:57.378Z,18.02
2023-04-19T17:35:26.090Z,18.03
2023-04-19T17:37:55.594Z,18.02
2023-04-19T17:40:23.328Z,18.13
2023-04-19T17:42:51.006Z,18.03
2023-04-19T17:45:19.169Z,17.88
2023-04-19T17:47:46.875Z,17.54
2023-04-19T17:50:15.114Z,17.70
2023-04-19T17:52:43.396Z,17.84
2023-04-19T17:55:12.828Z,17.80
2023-04-19T17:57:40.517Z,17.90
2023-04-19T18:00:12.329Z,17.87
2023-04-19T18:02:40.476Z,17.73
2023-04-19T18:05:08.935Z,17.61
2023-04-19T18:07:37.891Z,17.78
2023-04-19T18:10:06.575Z,17.53
2023-04-19T18:12:35.704Z,17.60
2023-04-19T18:15:04.505Z,17.67
2023-04-19T18:17:32.234Z,17.73
2023-04-19T18:19:59.953Z,17.77
2023-04-19T18:22:28.517Z,17.77
2023-04-19T18:24:56.266Z,17.70
2023-04-19T18:27:23.984Z,17.73
2023-04-19T18:29:53.858Z,17.61
2023-04-19T18:32:23.430Z,17.70
2023-04-19T18:34:51.351Z,17.74
2023-04-19T18:37:19.294Z,17.64
2023-04-19T18:39:47.215Z,17.64
2023-04-19T18:42:15.123Z,17.61
2023-04-19T18:44:53.703Z,17.35
2023-04-19T18:47:23.542Z,17.46
2023-04-19T18:50:02.766Z,17.52
2023-04-19T18:52:34.508Z,17.37
2023-04-19T18:55:02.774Z,17.26
2023-04-19T18:57:34.640Z,17.05
2023-04-19T19:00:06.338Z,16.98
2023-04-19T19:02:36.991Z,16.99
2023-04-19T19:05:08.219Z,17.03
2023-04-19T19:07:37.782Z,16.95
2023-04-19T19:10:19.062Z,16.75
2023-04-19T19:12:49.616Z,16.51
2023-04-19T19:15:18.251Z,16.60
2023-04-19T19:17:49.752Z,16.68
2023-04-19T19:20:18.613Z,16.51
2023-04-19T19:22:46.496Z,16.62
2023-04-19T19:25:14.322Z,16.55
2023-04-19T19:28:02.351Z,16.42
2023-04-19T19:30:33.556Z,16.57
2023-04-19T19:33:05.183Z,16.41
2023-04-19T19:35:33.574Z,16.45
2023-04-19T19:38:01.294Z,16.43
2023-04-19T19:40:32.371Z,16.39
2023-04-19T19:43:00.842Z,16.32
2023-04-19T19:45:29.848Z,16.33
2023-04-19T19:47:59.186Z,16.35
2023-04-19T19:53:01.160Z,16.21
2023-04-19T19:55:29.937Z,16.03
2023-04-19T20:03:00.045Z,15.87
2023-04-19T20:05:30.364Z,15.82
2023-04-19T20:08:08.413Z,15.86
2023-04-19T20:10:38.694Z,15.93
2023-04-19T20:13:06.910Z,15.98
2023-04-19T20:15:35.083Z,15.93
2023-04-19T20:18:03.826Z,15.76
2023-04-19T20:20:33.174Z,15.78
2023-04-19T20:23:00.888Z,15.79
2023-04-19T20:25:28.818Z,15.84
2023-04-19T20:27:56.481Z,15.65
2023-04-19T20:30:24.286Z,15.76
2023-04-19T20:32:52.017Z,15.62
2023-04-19T20:35:19.763Z,15.65
2023-04-19T20:37:48.826Z,15.68
2023-04-19T20:40:17.878Z,15.68
2023-04-19T20:42:45.666Z,15.66
2023-04-19T20:45:14.266Z,15.75
2023-04-19T20:47:43.000Z,15.64
2023-04-19T20:50:11.669Z,15.64
2023-04-19T20:52:39.473Z,15.69
2023-04-19T20:55:09.870Z,15.61
2023-04-19T20:57:37.535Z,15.63
2023-04-19T21:00:08.476Z,15.59
2023-04-19T21:02:36.452Z,15.62
2023-04-19T21:05:04.338Z,15.58
2023-04-19T21:07:31.979Z,15.59
2023-04-19T21:09:59.832Z,15.52
2023-04-19T21:12:28.878Z,15.58
2023-04-19T21:14:56.617Z,15.57
2023-04-19T21:17:24.515Z,15.39
2023-04-19T21:19:52.321Z,15.49
2023-04-19T21:22:20.036Z,15.31
2023-04-19T21:24:48.257Z,15.41
2023-04-19T21:27:15.975Z,15.41
2023-04-19T21:29:45.004Z,15.42
2023-04-19T21:32:13.256Z,15.31
2023-04-19T21:34:41.254Z,15.28
2023-04-19T21:37:08.909Z,15.33
2023-04-19T21:39:37.184Z,15.31
2023-04-19T21:42:05.044Z,15.25
2023-04-19T21:44:34.026Z,15.24
2023-04-19T21:47:03.649Z,15.19
2023-04-19T21:49:31.399Z,15.23
2023-04-19T21:51:59.087Z,14.95
2023-04-19T21:54:34.084Z,15.09
2023-04-19T21:57:02.586Z,15.10
2023-04-19T21:59:31.358Z,15.00
2023-04-19T22:01:59.804Z,15.11
2023-04-19T22:04:30.738Z,15.10
2023-04-19T22:07:02.719Z,15.01
2023-04-19T22:09:31.171Z,15.10
2023-04-19T22:11:59.979Z,15.07
2023-04-19T22:14:28.200Z,14.93
2023-04-19T22:16:56.576Z,14.95
2023-04-19T22:19:24.844Z,14.82
2023-04-19T22:21:55.726Z,14.81
2023-04-19T22:24:23.607Z,14.86
2023-04-19T22:26:53.000Z,14.76
2023-04-19T22:29:21.347Z,14.72
2023-04-19T22:31:49.159Z,14.75
2023-04-19T22:34:16.892Z,14.75
2023-04-19T22:36:45.131Z,14.77
2023-04-19T22:39:14.171Z,14.73
2023-04-19T22:41:41.821Z,14.74
2023-04-19T22:44:09.788Z,14.54
2023-04-19T22:46:37.692Z,14.56
2023-04-19T22:49:05.412Z,14.63
2023-04-19T22:51:34.511Z,14.52
2023-04-19T22:54:03.336Z,14.46
2023-04-19T22:56:32.398Z,14.49
2023-04-19T22:59:00.962Z,14.48
2023-04-19T23:01:28.703Z,14.43
2023-04-19T23:03:56.374Z,14.44
2023-04-19T23:06:25.074Z,14.18
2023-04-19T23:08:53.232Z,14.23
2023-04-19T23:11:24.753Z,14.24
2023-04-19T23:13:54.384Z,14.24
2023-04-19T23:16:24.138Z,14.22
2023-04-19T23:18:51.841Z,14.16
2023-04-19T23:21:20.070Z,14.24
2023-04-19T23:23:47.812Z,14.18
2023-04-19T23:26:15.577Z,14.16
2023-04-19T23:28:43.758Z,14.00
2023-04-19T23:31:12.813Z,13.97
2023-04-19T23:33:40.716Z,13.96
2023-04-19T23:36:09.265Z,13.80
2023-04-19T23:38:36.930Z,13.91
2023-04-19T23:41:04.649Z,13.84
2023-04-19T23:43:32.867Z,13.76
2023-04-19T23:46:00.633Z,13.68
2023-04-19T23:48:29.682Z,13.45
2023-04-19T23:50:58.038Z,13.52
2023-04-19T23:53:26.116Z,13.47
2023-04-19T23:55:53.852Z,13.39
2023-04-19T23:58:22.130Z,13.38
